Time,TemperatureF,DewpointF,PressureIn,WindDirection,WindDirectionDegrees,WindSpeedMPH,WindSpeedGustMPH,Humidity,HourlyPrecipIn,Conditions,Clouds,dailyrainin,SoftwareType,DateUTC
2016-07-23 00:13:00,77.9,72.0,29.92,SW,232,1.0,5.0,82,0.00,,,0.00,weatherlink.com 1.10,2016-07-23 05:13:00,
2016-07-23 00:27:00,77.9,72.0,29.93,SSW,201,2.0,4.0,82,0.00,,,0.00,weatherlink.com 1.10,2016-07-23 05:27:00,
2016-07-23 00:42:00,77.7,72.0,29.93,West,261,0.0,3.0,83,0.00,,,0.00,weatherlink.com 1.10,2016-07-23 05:42:00,
2016-07-23 00:56:00,77.4,72.0,29.93,WSW,246,0.0,1.0,84,0.00,,,0.00,weatherlink.com 1.10,2016-07-23 05:56:00,
2016-07-23 01:11:00,77.0,72.0,29.93,WSW,248,0.0,1.0,84,0.00,,,0.00,weatherlink.com 1.10,2016-07-23 06:11:00,
2016-07-23 01:25:00,76.7,72.0,29.92,WSW,248,0.0,0.0,85,0.00,,,0.00,weatherlink.com 1.10,2016-07-23 06:25:00,
2016-07-23 01:40:00,76.4,72.0,29.92,WSW,248,0.0,0.0,85,0.00,,,0.00,weatherlink.com 1.10,2016-07-23 06:40:00,
2016-07-23 01:54:00,76.0,72.0,29.92,WSW,248,0.0,0.0,86,0.00,,,0.00,weatherlink.com 1.10,2016-07-23 06:54:00,
2016-07-23 02:09:00,75.8,71.0,29.92,WSW,248,0.0,0.0,86,0.00,,,0.00,weatherlink.com 1.10,2016-07-23 07:09:00,
2016-07-23 02:23:00,75.5,71.0,29.92,WSW,248,0.0,0.0,87,0.00,,,0.00,weatherlink.com 1.10,2016-07-23 07:23:00,
2016-07-23 02:38:00,75.4,71.0,29.92,WSW,248,0.0,0.0,87,0.00,,,0.00,weatherlink.com 1.10,2016-07-23 07:38:00,
2016-07-23 02:52:00,75.2,71.0,29.92,WSW,248,0.0,0.0,87,0.00,,,0.00,weatherlink.com 1.10,2016-07-23 07:52:00,
2016-07-23 14:21:00,89.0,74.0,29.89,SW,222,2.0,7.0,61,0.00,,,0.00,weatherlink.com 1.10,2016-07-23 19:21:00,
2016-07-23 14:35:00,89.4,74.0,29.88,SSW,199,6.0,7.0,60,0.00,,,0.00,weatherlink.com 1.10,2016-07-23 19:35:00,
2016-07-23 14:50:00,89.5,74.0,29.87,South,191,3.0,11.0,61,0.00,,,0.00,weatherlink.com 1.10,2016-07-23 19:50:00,
2016-07-23 15:05:00,89.2,75.0,29.86,SW,217,3.0,7.0,63,0.00,,,0.00,weatherlink.com 1.10,2016-07-23 20:05:00,
2016-07-23 15:19:00,89.7,75.0,29.85,SW,229,7.0,9.0,63,0.00,,,0.00,weatherlink.com 1.10,2016-07-23 20:19:00,
2016-07-23 15:34:00,88.8,73.0,29.84,SSW,212,3.0,11.0,60,0.00,,,0.00,weatherlink.com 1.10,2016-07-23 20:34:00,
2016-07-23 15:48:00,88.4,75.0,29.85,WSW,240,2.0,6.0,64,0.00,,,0.00,weatherlink.com 1.10,2016-07-23 20:48:00,
2016-07-23 16:03:00,89.2,75.0,29.85,West,269,2.0,7.0,64,0.00,,,0.00,weatherlink.com 1.10,2016-07-23 21:03:00,
2016-07-23 16:17:00,88.9,76.0,29.84,WSW,245,1.0,8.0,66,0.00,,,0.00,weatherlink.com 1.10,2016-07-23 21:17:00,
2016-07-23 16:32:00,89.4,76.0,29.84,SSE,165,3.0,10.0,65,0.00,,,0.00,weatherlink.com 1.10,2016-07-23 21:32:00,
2016-07-23 16:46:00,89.5,76.0,29.84,WSW,255,4.0,10.0,65,0.00,,,0.00,weatherlink.com 1.10,2016-07-23 21:46:00,
2016-07-23 17:01:00,89.5,76.0,29.84,SSW,207,2.0,9.0,65,0.00,,,0.00,weatherlink.com 1.10,2016-07-23 22:01:00,
2016-07-23 17:15:00,89.5,76.0,29.85,WSW,243,2.0,8.0,65,0.00,,,0.00,weatherlink.com 1.10,2016-07-23 22:15:00,
2016-07-23 17:30:00,89.5,76.0,29.85,WSW,243,2.0,6.0,65,0.00,,,0.00,weatherlink.com 1.10,2016-07-23 22:30:00,
2016-07-23 17:44:00,88.8,76.0,29.84,SW,217,3.0,6.0,66,0.00,,,0.00,weatherlink.com 1.10,2016-07-23 22:44:00,
2016-07-23 17:58:00,88.1,75.0,29.82,WSW,250,5.0,8.0,65,0.00,,,0.00,weatherlink.com 1.10,2016-07-23 22:58:00,
2016-07-23 18:13:00,87.9,76.0,29.83,SSW,208,3.0,4.0,67,0.00,,,0.00,weatherlink.com 1.10,2016-07-23 23:13:00,
2016-07-23 18:28:00,87.6,75.0,29.82,SSW,210,4.0,11.0,66,0.00,,,0.00,weatherlink.com 1.10,2016-07-23 23:28:00,
2016-07-23 18:42:00,87.1,76.0,29.82,WSW,246,1.0,4.0,69,0.00,,,0.00,weatherlink.com 1.10,2016-07-23 23:42:00,